This is the latest recevied weather packets stored in our database for station/object KF4CQ. If no packets are shown the sender has not sent any weather packets the latest 10 day(s).
| Time | Temp. | Humidity | Pressure | Rain* | Wind** | Luminosity | Snow |
|---|---|---|---|---|---|---|---|
| 1778076755 | 27.22° C | 72% | 1018.6 hPa | 0 mm | - | 416 W/m² | - |
| 1778076453 | 27.22° C | 74% | 1018.3 hPa | 0 mm | - | 368 W/m² | - |
| 1778076149 | 26.67° C | 74% | 1018.4 hPa | 0 mm | - | 386 W/m² | - |
| 1778075846 | 27.22° C | 74% | 1018.4 hPa | 0 mm | - | 352 W/m² | - |
| 1778075543 | 26.67° C | 76% | 1018.2 hPa | 0 mm | - | 316 W/m² | - |
| 1778075240 | 26.67° C | 76% | 1018.4 hPa | 0 mm | - | 332 W/m² | - |
| 1778074935 | 26.11° C | 78% | 1018.4 hPa | 0 mm | - | 302 W/m² | - |
| 1778074633 | 25.56° C | 79% | 1018.2 hPa | 0 mm | - | 253 W/m² | - |
| 1778074329 | 25.56° C | 79% | 1018.2 hPa | 0 mm | - | 242 W/m² | - |
| 1778074027 | 25.56° C | 80% | 1018.4 hPa | 0 mm | - | 241 W/m² | - |
| 1778073724 | 25.56° C | 81% | 1018.2 hPa | 0 mm | - | 212 W/m² | - |
| 1778073422 | 25.56° C | 82% | 1018.1 hPa | 0 mm | - | 188 W/m² | - |
| 1778073117 | 25° C | 82% | 1018.1 hPa | 0 mm | - | 161 W/m² | - |
| 1778072814 | 25° C | 83% | 1018.2 hPa | 0 mm | - | 127 W/m² | - |
| 1778072512 | 25° C | 83% | 1018.2 hPa | 0 mm | - | 103 W/m² | - |
| 1778072210 | 24.44° C | 85% | 1018.3 hPa | 0 mm | - | 101 W/m² | - |
| 1778071907 | 24.44° C | 84% | 1018.2 hPa | 0 mm | - | 99 W/m² | - |
| 1778071605 | 23.89° C | 85% | 1018.1 hPa | 0 mm | - | 89 W/m² | - |
| 1778071302 | 23.89° C | 86% | 1018 hPa | 0 mm | - | 76 W/m² | - |
| 1778071000 | 23.89° C | 85% | 1018.1 hPa | 0 mm | - | 66 W/m² | - |
| 1778070698 | 23.89° C | 85% | 1018.1 hPa | 0 mm | - | 74 W/m² | - |
| 1778070395 | 22.78° C | 87% | 1018 hPa | 0 mm | - | 72 W/m² | - |
| 1778070092 | 22.78° C | 87% | 1017.9 hPa | 0 mm | - | 63 W/m² | - |
| 1778069790 | 22.78° C | 86% | 1018.2 hPa | 0 mm | - | 54 W/m² | - |
| 1778069486 | 22.22° C | 87% | 1017.9 hPa | 0 mm | - | 47 W/m² | - |
* Rain latest hour (hover to see other rain measurements)
** Current wind speed in m/s (hover to see current wind gust speed)